San Miguel de Allende, GUA, Mexico
Current Conditions -  °F | °C
As of 6:45 AM on Wednesday 22 Oct 2014 (Local Time) from MMQT Reporting Station
Overcast Overcast  
Wind Chill: 57°   Ceiling: 9000
Heat Index: 57°   Visibility: 6mi
Dew Point: 55°   Wind: 9mph
Humidity: 94%   Direction: 60°ENE
Pressure: 30.24"   Gusts: NA
Location:  20.92°N, 100.75°W
Report Text: MMQT 221145Z 06008KT 6SM SCT025 BKN090 OVC200 14/13 A3024 RMK 8/727 DZ
Loading
Personal Weather Stations






























Interactive Weather Map New forecast layout! Learn more

10-Day Weather Forecast

Advertisements
Track Severe Weather on mobile